(°C)
29°
30°
30°
30°
29°
28°
26°
(°C)
30°
32°
31°
30°
30°
29°
28°
L
ESE
ESE
ESE
ESE
ESE
ESE
(km/h)
9-16
9-21
11-18
12-13
13-15
11-18
10-20
(mm)
0
0
0
0
0
0
0
(%)
0
1
1
1
1
1
0

Elevação do sol

/ 50.4°
sun-icon
UV 5
07:52
20:01
Minguante gibosa (220°)
21:56
11:06

METAR para Alcantarilla (LERI)

Hora Condições Temperatura/
Ponto de condensação
Vento Visibilidade Tempo Nuvens Pressão Mudança Bruto
VFR 29°C / 18°C 110º variable 020º to 170º 3kt >10km - Scattered Clouds 4200ft 1015 No Significant change LERI 241200Z 11003KT 020V170 9999 SCT042 29/18 Q1015 NOSIG
VFR 27°C / 18°C 340º variable 280º to 050º 4kt >10km - Broken Clouds 3600ft 1015 No Significant change LERI 241130Z 34004KT 280V050 9999 BKN036 27/18 Q1015 NOSIG
VFR 27°C / 18°C 300º variable 250º to 010º 3kt >10km - Scattered Clouds 3300ft 1015 No Significant change LERI 241100Z 30003KT 250V010 9999 SCT033 BKN038 27/18 Q1015 NOSIG
VFR 27°C / 18°C 330º variable 260º to 010º 4kt >10km - Broken Clouds 3300ft 1016 No Significant change LERI 241030Z 33004KT 260V010 9999 BKN033 27/18 Q1016 NOSIG
VFR 26°C / 18°C 340º variable 280º to 020º 6kt >10km - Broken Clouds 3100ft 1016 No Significant change LERI 241000Z 34006KT 280V020 9999 BKN031 26/18 Q1016 NOSIG
VFR 26°C / 18°C 300º variable 230º to 360º 4kt >10km - Broken Clouds 3100ft 1016 No Significant change LERI 240930Z 30004KT 230V360 9999 BKN031 26/18 Q1016 NOSIG
VFR 25°C / 18°C 300º variable 240º to 350º 4kt >10km - Broken Clouds 3300ft 1015 No Significant change LERI 240900Z 30004KT 240V350 9999 BKN033 25/18 Q1015 NOSIG
VFR 25°C / 18°C 300º variable 260º to 340º 4kt >10km - Broken Clouds 3100ft 1015 No Significant change LERI 240830Z 30004KT 260V340 9999 BKN031 25/18 Q1015 NOSIG
VFR 24°C / 18°C 290º variable 270º to 350º 3kt >10km - Few Clouds 3100ft 1015 No Significant change LERI 240800Z 29003KT 270V350 9999 FEW031 BKN036 24/18 Q1015 NOSIG
VFR 24°C / 18°C variable 2kt >10km - Broken Clouds 3100ft 1015 No Significant change LERI 240730Z VRB02KT 9999 BKN031 24/18 Q1015 NOSIG
VFR 23°C / 19°C variable 0kt >10km - Broken Clouds 3100ft 1015 No Significant change LERI 240700Z 00000KT 9999 BKN031 23/19 Q1015 NOSIG
VFR 22°C / 19°C 270º 1kt >10km - Broken Clouds 3100ft 1015 No Significant change LERI 240630Z 27001KT 9999 BKN031 22/19 Q1015 NOSIG
VFR 21°C / 18°C variable 0kt >10km - Scattered Clouds 3100ft 1014 No Significant change LERI 240600Z 00000KT 9999 SCT031 BKN036 21/18 Q1014 NOSIG
VFR 25°C / 18°C 70º 11kt >10km - Scattered Clouds 5500ft 1014 No Significant change LERI 231800Z 07011KT 9999 SCT055 25/18 Q1014 NOSIG
VFR 26°C / 18°C 60º 13kt >10km - Scattered Clouds 5700ft 1014 No Significant change LERI 231730Z 06013KT 9999 SCT057 26/18 Q1014 NOSIG
VFR 26°C / 17°C 70º variable 030º to 100º 10kt >10km - Scattered Clouds 6000ft 1014 No Significant change LERI 231700Z 07010KT 030V100 9999 SCT060 26/17 Q1014 NOSIG
VFR 27°C / 17°C 80º variable 050º to 110º 17kt >10km - Scattered Clouds 6000ft 1014 No Significant change LERI 231630Z 08017KT 050V110 9999 SCT060 27/17 Q1014 NOSIG
VFR 28°C / 16°C 80º variable 050º to 110º 14kt >10km - Few Clouds 6000ft 1014 No Significant change LERI 231600Z 08014KT 050V110 9999 FEW060 28/16 Q1014 NOSIG
VFR 28°C / 16°C 90º variable 060º to 130º 14kt >10km - Few Clouds 6000ft 1014 No Significant change LERI 231530Z 09014KT 060V130 9999 FEW060 28/16 Q1014 NOSIG
VFR 29°C / 16°C 70º variable 040º to 110º 13kt >10km - Few Clouds 6000ft 1014 No Significant change LERI 231500Z 07013KT 040V110 9999 FEW060 29/16 Q1014 NOSIG
VFR 29°C / 16°C 80º variable 050º to 110º 10kt >10km - Few Clouds 6000ft 1014 No Significant change LERI 231430Z 08010KT 050V110 9999 FEW060 29/16 Q1014 NOSIG
VFR 29°C / 16°C 70º variable 040º to 110º 9kt >10km - Few Clouds 4500ft 1014 No Significant change LERI 231400Z 07009KT 040V110 9999 FEW045 29/16 Q1014 NOSIG
VFR 29°C / 16°C 60º variable 020º to 100º 7kt >10km - Few Clouds 6000ft 1014 No Significant change LERI 231330Z 06007KT 020V100 9999 FEW060 29/16 Q1014 NOSIG
VFR 29°C / 15°C variable 4kt >10km - Few Clouds 6000ft 1014 No Significant change LERI 231300Z VRB04KT 9999 FEW060 29/15 Q1014 NOSIG

VFR

29°C / 18°C

[Mais]
Vento 110º variable 020º to 170º 3kt
Visibilidade >10km
Tempo -
Nuvens Scattered Clouds 4200ft
Pressão 1015
Mudança No Significant change
Bruto LERI 241200Z 11003KT 020V170 9999 SCT042 29/18 Q1015 NOSIG

VFR

27°C / 18°C

[Mais]
Vento 340º variable 280º to 050º 4kt
Visibilidade >10km
Tempo -
Nuvens Broken Clouds 3600ft
Pressão 1015
Mudança No Significant change
Bruto LERI 241130Z 34004KT 280V050 9999 BKN036 27/18 Q1015 NOSIG

VFR

27°C / 18°C

[Mais]
Vento 300º variable 250º to 010º 3kt
Visibilidade >10km
Tempo -
Nuvens Scattered Clouds 3300ft
Pressão 1015
Mudança No Significant change
Bruto LERI 241100Z 30003KT 250V010 9999 SCT033 BKN038 27/18 Q1015 NOSIG

VFR

27°C / 18°C

[Mais]
Vento 330º variable 260º to 010º 4kt
Visibilidade >10km
Tempo -
Nuvens Broken Clouds 3300ft
Pressão 1016
Mudança No Significant change
Bruto LERI 241030Z 33004KT 260V010 9999 BKN033 27/18 Q1016 NOSIG

VFR

26°C / 18°C

[Mais]
Vento 340º variable 280º to 020º 6kt
Visibilidade >10km
Tempo -
Nuvens Broken Clouds 3100ft
Pressão 1016
Mudança No Significant change
Bruto LERI 241000Z 34006KT 280V020 9999 BKN031 26/18 Q1016 NOSIG

VFR

26°C / 18°C

[Mais]
Vento 300º variable 230º to 360º 4kt
Visibilidade >10km
Tempo -
Nuvens Broken Clouds 3100ft
Pressão 1016
Mudança No Significant change
Bruto LERI 240930Z 30004KT 230V360 9999 BKN031 26/18 Q1016 NOSIG

VFR

25°C / 18°C

[Mais]
Vento 300º variable 240º to 350º 4kt
Visibilidade >10km
Tempo -
Nuvens Broken Clouds 3300ft
Pressão 1015
Mudança No Significant change
Bruto LERI 240900Z 30004KT 240V350 9999 BKN033 25/18 Q1015 NOSIG

VFR

25°C / 18°C

[Mais]
Vento 300º variable 260º to 340º 4kt
Visibilidade >10km
Tempo -
Nuvens Broken Clouds 3100ft
Pressão 1015
Mudança No Significant change
Bruto LERI 240830Z 30004KT 260V340 9999 BKN031 25/18 Q1015 NOSIG

VFR

24°C / 18°C

[Mais]
Vento 290º variable 270º to 350º 3kt
Visibilidade >10km
Tempo -
Nuvens Few Clouds 3100ft
Pressão 1015
Mudança No Significant change
Bruto LERI 240800Z 29003KT 270V350 9999 FEW031 BKN036 24/18 Q1015 NOSIG

VFR

24°C / 18°C

[Mais]
Vento variable 2kt
Visibilidade >10km
Tempo -
Nuvens Broken Clouds 3100ft
Pressão 1015
Mudança No Significant change
Bruto LERI 240730Z VRB02KT 9999 BKN031 24/18 Q1015 NOSIG

VFR

23°C / 19°C

[Mais]
Vento variable 0kt
Visibilidade >10km
Tempo -
Nuvens Broken Clouds 3100ft
Pressão 1015
Mudança No Significant change
Bruto LERI 240700Z 00000KT 9999 BKN031 23/19 Q1015 NOSIG

VFR

22°C / 19°C

[Mais]
Vento 270º 1kt
Visibilidade >10km
Tempo -
Nuvens Broken Clouds 3100ft
Pressão 1015
Mudança No Significant change
Bruto LERI 240630Z 27001KT 9999 BKN031 22/19 Q1015 NOSIG

VFR

21°C / 18°C

[Mais]
Vento variable 0kt
Visibilidade >10km
Tempo -
Nuvens Scattered Clouds 3100ft
Pressão 1014
Mudança No Significant change
Bruto LERI 240600Z 00000KT 9999 SCT031 BKN036 21/18 Q1014 NOSIG

VFR

25°C / 18°C

[Mais]
Vento 70º 11kt
Visibilidade >10km
Tempo -
Nuvens Scattered Clouds 5500ft
Pressão 1014
Mudança No Significant change
Bruto LERI 231800Z 07011KT 9999 SCT055 25/18 Q1014 NOSIG

VFR

26°C / 18°C

[Mais]
Vento 60º 13kt
Visibilidade >10km
Tempo -
Nuvens Scattered Clouds 5700ft
Pressão 1014
Mudança No Significant change
Bruto LERI 231730Z 06013KT 9999 SCT057 26/18 Q1014 NOSIG

VFR

26°C / 17°C

[Mais]
Vento 70º variable 030º to 100º 10kt
Visibilidade >10km
Tempo -
Nuvens Scattered Clouds 6000ft
Pressão 1014
Mudança No Significant change
Bruto LERI 231700Z 07010KT 030V100 9999 SCT060 26/17 Q1014 NOSIG

VFR

27°C / 17°C

[Mais]
Vento 80º variable 050º to 110º 17kt
Visibilidade >10km
Tempo -
Nuvens Scattered Clouds 6000ft
Pressão 1014
Mudança No Significant change
Bruto LERI 231630Z 08017KT 050V110 9999 SCT060 27/17 Q1014 NOSIG

VFR

28°C / 16°C

[Mais]
Vento 80º variable 050º to 110º 14kt
Visibilidade >10km
Tempo -
Nuvens Few Clouds 6000ft
Pressão 1014
Mudança No Significant change
Bruto LERI 231600Z 08014KT 050V110 9999 FEW060 28/16 Q1014 NOSIG

VFR

28°C / 16°C

[Mais]
Vento 90º variable 060º to 130º 14kt
Visibilidade >10km
Tempo -
Nuvens Few Clouds 6000ft
Pressão 1014
Mudança No Significant change
Bruto LERI 231530Z 09014KT 060V130 9999 FEW060 28/16 Q1014 NOSIG

VFR

29°C / 16°C

[Mais]
Vento 70º variable 040º to 110º 13kt
Visibilidade >10km
Tempo -
Nuvens Few Clouds 6000ft
Pressão 1014
Mudança No Significant change
Bruto LERI 231500Z 07013KT 040V110 9999 FEW060 29/16 Q1014 NOSIG

VFR

29°C / 16°C

[Mais]
Vento 80º variable 050º to 110º 10kt
Visibilidade >10km
Tempo -
Nuvens Few Clouds 6000ft
Pressão 1014
Mudança No Significant change
Bruto LERI 231430Z 08010KT 050V110 9999 FEW060 29/16 Q1014 NOSIG

VFR

29°C / 16°C

[Mais]
Vento 70º variable 040º to 110º 9kt
Visibilidade >10km
Tempo -
Nuvens Few Clouds 4500ft
Pressão 1014
Mudança No Significant change
Bruto LERI 231400Z 07009KT 040V110 9999 FEW045 29/16 Q1014 NOSIG

VFR

29°C / 16°C

[Mais]
Vento 60º variable 020º to 100º 7kt
Visibilidade >10km
Tempo -
Nuvens Few Clouds 6000ft
Pressão 1014
Mudança No Significant change
Bruto LERI 231330Z 06007KT 020V100 9999 FEW060 29/16 Q1014 NOSIG

VFR

29°C / 15°C

[Mais]
Vento variable 4kt
Visibilidade >10km
Tempo -
Nuvens Few Clouds 6000ft
Pressão 1014
Mudança No Significant change
Bruto LERI 231300Z VRB04KT 9999 FEW060 29/15 Q1014 NOSIG

TAF para Alcantarilla (LERI)

From till


Maximum Temperature 31ºC on . Minimum Temperature 21ºC on .
From till Wind variable 2kt. Visibility 10km or more. Scattered Clouds 2000ft. Scattered Clouds 3000ft.
Becoming from till Wind 110º 10kt. Visibility 10km or more. Scattered Clouds 2000ft. Scattered Clouds 3000ft.
Becoming from till Wind 220º 4kt. Visibility 10km or more. Scattered Clouds 2000ft. Scattered Clouds 3000ft.

Bruto: TAF LERI 241100Z 2412/2512 VRB02KT 9999 SCT020 SCT030 TX31/2414Z TN21/2506Z BECMG 2415/2417 11010KT BECMG 2420/2422 22004KT

Imagens atuais de satélite e precipitação para Alcantarilla, Espanha

O marcador de lugar é colocado em Alcantarilla. [Mais]

A imagem de satélite em tempo real combina luz visível durante o dia com radiação infravermelha durante a noite. À noite, a imagem não é escura, pois a radiação infravermelha pode detectar diferenças de temperatura. Infelizmente, nuvens baixas e neblina são difíceis de distinguir das temperaturas do solo e, portanto, podem ser quase invisíveis durante a noite. As imagens de satélite Meteosat para a Europa são atualizadas em tempo real a cada 5 minutos. GOES-16/GOES-17 ( América do Norte e do Sul) e Himawari (Ásia) são atualizadas a cada 10 minutos.

A precipitação é estimada por radares e satélites. A estimativa da precipitação noturna por satélites é menos precisa do que durante o dia. Cruzes laranjas identificam lugares onde relâmpagos foram detetados (em Europa).

Copyright 2021 EUMETSAT / meteoblue. Dados de relâmpagos fornecidos por nowcast.

Radar para Alcantarilla

Chuvisco
Leve
Moderado
Forte
Muito forte
Granizo

O marcador do lugar é colocado em Alcantarilla. Esta animação mostra o radar de precipitação para a última 1 hora. A queda de neve pode ser invisível para o radar. A intensidade da precipitação é codificada por cores, variando do azul claro ao laranja.
Radar data source: AEMET.

Situação meteorológica atual e alertas

EUMETNET – MeteoAlarm

pictomap

Fonte: AEMET

Atrasos horários entre este site e www.meteoalarm.eu são possíveis. Para obter as informações mais atualizadas sobre os níveis de alerta, conforme publicado pelos Serviços Meteorológicos Nacionais participantes, visite o www.meteoalarm.eu.